^^
Saratoga-Weather Station Historical Data
Daily Summary for February 26, 2021 Units:  English    Metric   Both
Daily Weekly Monthly Yearly Custom
  High: Low: Average:
Temperature: 48.6 °F 37.6 °F 43.9 °F
Dew Point: 44.1 °F 34.3 °F 40.1 °F
Humidity: 92% 80% 87%
Wind Speed: 8.9mph 0mph 0.9mph
Wind Gust: 13mph - -
Wind- - SW
Pressure: 30.6 in 30.4 in -
Precipitation: 0.02 in    
Historical Graphs
 
 
Tabular Data for February 26, 2021
Time Temperature Dew Point Pressure Wind Wind Speed Wind Gust Humidity Rainfall Rate (Hourly) solar
00:09 46 °F 40.3 °F 30.4 in Calm     80% 0 in 0 W/m2
00:14 46 °F 40.5 °F 30.4 in Calm     81% 0 in 0 W/m2
00:19 45.7 °F 40.1 °F 30.4 in Calm     81% 0 in 0 W/m2
00:24 45.5 °F 40.1 °F 30.4 in Calm     81% 0 in 0 W/m2
00:29 45.3 °F 40.1 °F 30.4 in West 0.9 mph 1 mph 82% 0 in 0 W/m2
00:34 45.3 °F 40.1 °F 30.4 in Calm     82% 0 in 0 W/m2
00:39 45.1 °F 39.9 °F 30.4 in Calm   1 mph 82% 0 in 0 W/m2
00:44 45.1 °F 40.3 °F 30.4 in Calm     83% 0 in 0 W/m2
00:49 45.1 °F 39.9 °F 30.4 in Calm   1 mph 82% 0 in 0 W/m2
00:54 45.1 °F 40.3 °F 30.4 in Calm     83% 0 in 0 W/m2
00:59 45 °F 40.1 °F 30.4 in Calm     83% 0 in 0 W/m2
01:04 45 °F 40.1 °F 30.4 in Calm     83% 0 in 0 W/m2
01:09 45 °F 40.1 °F 30.4 in Calm     83% 0 in 0 W/m2
01:14 45 °F 40.5 °F 30.4 in Calm     84% 0 in 0 W/m2
01:19 45 °F 40.5 °F 30.4 in Calm     84% 0 in 0 W/m2
01:24 45 °F 40.1 °F 30.4 in Calm     83% 0 in 0 W/m2
01:29 44.8 °F 39.9 °F 30.4 in Calm     83% 0 in 0 W/m2
01:34 44.8 °F 39.9 °F 30.4 in Calm     83% 0 in 0 W/m2
01:39 44.6 °F 40.1 °F 30.4 in Calm     84% 0 in 0 W/m2
01:44 44.4 °F 39.9 °F 30.4 in Calm     84% 0 in 0 W/m2
01:49 44.1 °F 39.6 °F 30.4 in Calm     84% 0 in 0 W/m2
01:54 43.9 °F 39.7 °F 30.4 in Calm     85% 0 in 0 W/m2
01:59 43.7 °F 39.6 °F 30.4 in Calm     85% 0 in 0 W/m2
02:04 43.5 °F 39.4 °F 30.4 in Calm     85% 0 in 0 W/m2
02:09 43.5 °F 39.4 °F 30.4 in Calm     85% 0 in 0 W/m2
02:14 43.3 °F 39.2 °F 30.4 in West 0.9 mph 2 mph 85% 0 in 0 W/m2
02:19 43.3 °F 39.2 °F 30.4 in Calm     85% 0 in 0 W/m2
02:24 43.2 °F 39.2 °F 30.4 in Calm     86% 0 in 0 W/m2
02:29 43.2 °F 39.2 °F 30.4 in Calm     86% 0 in 0 W/m2
02:34 42.8 °F 38.8 °F 30.4 in Calm     86% 0 in 0 W/m2
02:39 42.6 °F 39 °F 30.4 in Calm     87% 0 in 0 W/m2
02:44 42.4 °F 38.8 °F 30.4 in Calm     87% 0 in 0 W/m2
02:49 42.4 °F 38.8 °F 30.4 in Calm     87% 0 in 0 W/m2
02:54 42.3 °F 38.7 °F 30.4 in Calm     87% 0 in 0 W/m2
02:59 42.3 °F 38.7 °F 30.4 in Calm     87% 0 in 0 W/m2
03:04 42.3 °F 39 °F 30.4 in Calm     88% 0 in 0 W/m2
03:09 42.3 °F 39 °F 30.4 in Calm     88% 0 in 0 W/m2
03:14 42.3 °F 39.2 °F 30.4 in Calm   1 mph 89% 0 in 0 W/m2
03:19 42.3 °F 39.2 °F 30.4 in Calm     89% 0 in 0 W/m2
03:24 42.4 °F 39.4 °F 30.4 in Calm   1 mph 89% 0 in 0 W/m2
03:29 42.4 °F 39.4 °F 30.4 in West 0.9 mph 1 mph 89% 0 in 0 W/m2
03:34 42.6 °F 39.6 °F 30.4 in Calm   1 mph 89% 0 in 0 W/m2
03:44 42.6 °F 39.6 °F 30.4 in Calm   1 mph 89% 0 in 0 W/m2
03:49 42.6 °F 39.6 °F 30.4 in Calm     89% 0 in 0 W/m2
03:54 42.6 °F 39.6 °F 30.4 in Calm     89% 0 in 0 W/m2
03:59 42.8 °F 39.7 °F 30.4 in Calm   2 mph 89% 0 in 0 W/m2
04:04 43 °F 40.3 °F 30.4 in Calm   1 mph 90% 0 in 0 W/m2
04:09 43.2 °F 40.5 °F 30.4 in West 0.9 mph 2 mph 90% 0 in 0 W/m2
04:14 43.5 °F 40.8 °F 30.4 in West 2 mph 3 mph 90% 0 in 0 W/m2
04:19 44.1 °F 41 °F 30.4 in West 2 mph 2 mph 89% 0 in 0 W/m2
04:24 44.2 °F 41 °F 30.4 in Calm   3 mph 88% 0 in 0 W/m2
04:29 44.4 °F 41.2 °F 30.4 in West 0.9 mph 1 mph 88% 0 in 0 W/m2
04:39 46.9 °F 43.5 °F 30.4 in West 0.9 mph 7 mph 88% 0 in 0 W/m2
04:44 48.2 °F 43.5 °F 30.4 in West 2 mph 4 mph 84% 0 in 0 W/m2
04:49 48.6 °F 43.7 °F 30.4 in Calm   7 mph 83% 0 in 0 W/m2
04:54 48.6 °F 43.3 °F 30.4 in Calm   1 mph 82% 0 in 0 W/m2
04:59 48 °F 42.1 °F 30.4 in Calm     80% 0 in 0 W/m2
05:04 47.7 °F 41.7 °F 30.4 in Calm   2 mph 80% 0 in 0 W/m2
05:09 47.1 °F 41.5 °F 30.4 in Calm   1 mph 81% 0 in 0 W/m2
05:14 46.9 °F 41.7 °F 30.4 in Calm     82% 0 in 0 W/m2
05:19 46.6 °F 41.4 °F 30.4 in Calm     82% 0 in 0 W/m2
05:24 46.2 °F 41.4 °F 30.4 in Calm   1 mph 83% 0 in 0 W/m2
05:29 46 °F 41.2 °F 30.4 in Calm     83% 0 in 0 W/m2
05:34 45.7 °F 40.8 °F 30.4 in NW 0.9 mph 2 mph 83% 0 in 0 W/m2
05:39 45.1 °F 40.3 °F 30.4 in Calm     83% 0 in 0 W/m2
05:44 44.8 °F 40.3 °F 30.4 in Calm     84% 0 in 0 W/m2
05:49 44.4 °F 39.9 °F 30.4 in Calm   2 mph 84% 0 in 0 W/m2
05:54 44.2 °F 40.1 °F 30.4 in Calm     85% 0 in 0 W/m2
06:04 44.1 °F 40.1 °F 30.4 in Calm     86% 0 in 0 W/m2
06:09 44.1 °F 40.5 °F 30.4 in Calm     87% 0 in 0 W/m2
06:14 44.1 °F 40.5 °F 30.4 in Calm     87% 0 in 0 W/m2
06:19 44.2 °F 40.6 °F 30.4 in Calm   2 mph 87% 0 in 0 W/m2
06:24 44.4 °F 41.2 °F 30.4 in Calm   1 mph 88% 0 in 0 W/m2
06:29 44.8 °F 41.4 °F 30.4 in Calm   1 mph 88% 0 in 0 W/m2
06:34 45.1 °F 41.5 °F 30.4 in Calm   1 mph 87% 0 in 0 W/m2
06:39 45.3 °F 41.7 °F 30.4 in WNW 0.9 mph 3 mph 87% 0 in 0 W/m2
06:44 45.7 °F 42.1 °F 30.4 in Calm     87% 0 in 0 W/m2
06:49 45.9 °F 41.9 °F 30.4 in WNW 0.9 mph 1 mph 86% 0 in 0 W/m2
06:54 46 °F 42.1 °F 30.4 in Calm   2 mph 86% 0 in 0 W/m2
06:59 46 °F 42.1 °F 30.4 in WNW 0.9 mph 3 mph 86% 0 in 0 W/m2
07:04 46.4 °F 42.8 °F 30.4 in West 0.9 mph 3 mph 87% 0 in 0 W/m2
07:09 46.8 °F 43.2 °F 30.4 in Calm   1 mph 87% 0 in 0 W/m2
07:14 46.9 °F 42.6 °F 30.4 in WNW 0.9 mph 1 mph 85% 0 in 0 W/m2
07:19 46.9 °F 42.4 °F 30.4 in Calm     84% 0 in 0 W/m2
07:24 46.9 °F 42.4 °F 30.4 in Calm     84% 0 in 0 W/m2
07:29 46.9 °F 42.6 °F 30.4 in Calm     85% 0 in 0 W/m2
07:34 46.9 °F 43 °F 30.4 in South 0.9 mph 2 mph 86% 0 in 0 W/m2
07:39 46.9 °F 42.6 °F 30.4 in Calm   1 mph 85% 0 in 0 W/m2
07:44 46.9 °F 42.6 °F 30.4 in Calm   1 mph 85% 0 in 0 W/m2
07:49 46.9 °F 42.6 °F 30.4 in Calm     85% 0 in 0 W/m2
07:54 46.9 °F 42.6 °F 30.4 in Calm   1 mph 85% 0 in 7 W/m2
07:59 46.9 °F 42.6 °F 30.4 in Calm     85% 0 in 11 W/m2
08:04 46.9 °F 42.6 °F 30.4 in Calm     85% 0 in 16 W/m2
08:09 46.9 °F 42.6 °F 30.4 in Calm     85% 0 in 18 W/m2
08:14 46.9 °F 42.6 °F 30.4 in Calm   1 mph 85% 0 in 18 W/m2
08:19 46.9 °F 43 °F 30.4 in Calm     86% 0 in 14 W/m2
08:24 47.1 °F 43.2 °F 30.4 in Calm   1 mph 86% 0 in 9 W/m2
08:29 47.1 °F 43.2 °F 30.4 in Calm     86% 0 in 9 W/m2
08:34 47.1 °F 43.2 °F 30.4 in Calm   2 mph 86% 0 in 11 W/m2
08:39 47.1 °F 43.2 °F 30.4 in Calm     86% 0 in 11 W/m2
08:44 47.1 °F 43.2 °F 30.4 in Calm   2 mph 86% 0 in 11 W/m2
08:49 47.1 °F 43.2 °F 30.4 in Calm     86% 0 in 16 W/m2
08:54 47.1 °F 43.2 °F 30.4 in Calm     86% 0 in 16 W/m2
08:59 47.3 °F 43.3 °F 30.4 in Calm     86% 0 in 11 W/m2
09:04 47.3 °F 43.3 °F 30.4 in NW 0.9 mph 2 mph 86% 0 in 11 W/m2
09:09 47.5 °F 43.5 °F 30.4 in North 0.9 mph 2 mph 86% 0 in 16 W/m2
09:14 47.5 °F 43.9 °F 30.4 in North 0.9 mph 5 mph 87% 0 in 16 W/m2
09:24 47.5 °F 44.1 °F 30.4 in WNW 2.9 mph 5 mph 88% 0 in 19 W/m2
09:29 47.1 °F 44.1 °F 30.4 in NNW 4 mph 6 mph 89% 0 in 23 W/m2
09:34 46.8 °F 43.3 °F 30.4 in NNE 4.9 mph 6 mph 88% 0 in 23 W/m2
09:39 46.4 °F 43.3 °F 30.4 in NNW 4 mph 4 mph 89% 0 in 32 W/m2
09:44 46 °F 43 °F 30.4 in NW 0.9 mph 5 mph 89% 0 in 30 W/m2
09:49 46 °F 43.3 °F 30.4 in WNW 4 mph 7 mph 90% 0 in 33 W/m2
09:54 45.9 °F 43.2 °F 30.4 in North 2.9 mph 7 mph 90% 0 in 32 W/m2
09:59 45.5 °F 42.8 °F 30.4 in SW 4 mph 6 mph 90% 0.01 in 39 W/m2
10:04 45.3 °F 42.6 °F 30.4 in NNE 2.9 mph 6 mph 90% 0.01 in 53 W/m2
10:09 45.1 °F 42.1 °F 30.4 in WNW 2 mph 6 mph 89% 0.01 in 65 W/m2
10:14 45.1 °F 42.1 °F 30.5 in Calm   3 mph 89% 0.01 in 35 W/m2
10:19 45.1 °F 42.1 °F 30.5 in WNW 2 mph 6 mph 89% 0.01 in 26 W/m2
10:24 45.1 °F 42.1 °F 30.5 in West 2 mph 7 mph 89% 0.01 in 23 W/m2
10:39 45 °F 41.9 °F 30.5 in North 4 mph 6 mph 89% 0.01 in 16 W/m2
10:49 44.8 °F 41.7 °F 30.5 in NW 2.9 mph 7 mph 89% 0.01 in 19 W/m2
10:54 44.6 °F 41.9 °F 30.5 in NNW 0.9 mph 3 mph 90% 0.01 in 30 W/m2
10:59 44.4 °F 41.7 °F 30.5 in NW 0.9 mph 3 mph 90% 0 in 21 W/m2
11:04 44.2 °F 41.5 °F 30.5 in North 0.9 mph 10 mph 90% 0 in 18 W/m2
11:09 44.2 °F 41.5 °F 30.5 in NNW 2.9 mph 4 mph 90% 0 in 28 W/m2
11:14 44.1 °F 41.5 °F 30.5 in NNW 4 mph 11 mph 91% 0 in 40 W/m2
11:19 43.9 °F 41.4 °F 30.5 in WNW 2 mph 12 mph 91% 0 in 39 W/m2
11:24 43.7 °F 41.5 °F 30.5 in WNW 2.9 mph 9 mph 92% 0 in 42 W/m2
11:29 43.5 °F 41.4 °F 30.5 in NNW 2.9 mph 12 mph 92% 0 in 53 W/m2
11:34 43.5 °F 41.4 °F 30.5 in NNW 6 mph 7 mph 92% 0 in 51 W/m2
11:39 43.3 °F 41.2 °F 30.5 in WNW 4.9 mph 6 mph 92% 0 in 49 W/m2
11:44 43.3 °F 41.2 °F 30.5 in North 4 mph 8 mph 92% 0 in 46 W/m2
11:49 43.3 °F 41.2 °F 30.5 in South 4 mph 7 mph 92% 0 in 42 W/m2
11:54 43.5 °F 41 °F 30.5 in North 4 mph 8 mph 91% 0 in 46 W/m2
11:59 43.5 °F 41 °F 30.5 in NNW 2 mph 4 mph 91% 0 in 42 W/m2
12:04 43.9 °F 41.2 °F 30.5 in West 2 mph 9 mph 90% 0 in 69 W/m2
12:09 44.1 °F 41.4 °F 30.5 in NW 2 mph 11 mph 90% 0 in 77 W/m2
12:14 44.1 °F 41 °F 30.5 in NW 4 mph 5 mph 89% 0 in 81 W/m2
12:19 44.2 °F 41.2 °F 30.5 in North 0.9 mph 4 mph 89% 0 in 77 W/m2
12:24 44.2 °F 41.2 °F 30.5 in East 8.9 mph 9 mph 89% 0 in 95 W/m2
12:29 44.2 °F 41 °F 30.5 in NW 2 mph 7 mph 88% 0 in 105 W/m2
12:34 44.4 °F 40.8 °F 30.5 in North 2 mph 4 mph 87% 0 in 104 W/m2
12:39 44.4 °F 40.8 °F 30.5 in WNW 2 mph 7 mph 87% 0 in 70 W/m2
12:44 44.4 °F 40.8 °F 30.5 in NNW 2.9 mph 4 mph 87% 0 in 72 W/m2
12:49 44.4 °F 40.8 °F 30.5 in Calm   5 mph 87% 0 in 62 W/m2
12:54 44.4 °F 40.8 °F 30.5 in NNW 4 mph 10 mph 87% 0 in 53 W/m2
12:59 44.2 °F 40.6 °F 30.5 in Calm   6 mph 87% 0 in 76 W/m2
13:04 44.4 °F 41.2 °F 30.5 in NW 2 mph 10 mph 88% 0 in 81 W/m2
13:09 44.2 °F 41 °F 30.5 in WNW 2.9 mph 5 mph 88% 0 in 69 W/m2
13:14 44.2 °F 41 °F 30.5 in West 2.9 mph 5 mph 88% 0 in 56 W/m2
13:19 44.1 °F 40.8 °F 30.5 in NW 4 mph 8 mph 88% 0.01 in 69 W/m2
13:24 44.1 °F 40.8 °F 30.5 in NNW 8.1 mph 8 mph 88% 0.01 in 58 W/m2
13:29 43.9 °F 40.6 °F 30.5 in NNW 4.9 mph 13 mph 88% 0.01 in 63 W/m2
13:34 43.5 °F 40.3 °F 30.5 in NNW 4 mph 8 mph 88% 0.01 in 54 W/m2
13:39 43.3 °F 40.1 °F 30.5 in West 2.9 mph 7 mph 88% 0.01 in 60 W/m2
13:44 43.3 °F 40.1 °F 30.5 in West 2 mph 9 mph 88% 0.02 in 62 W/m2
13:49 43.3 °F 40.3 °F 30.5 in WNW 4.9 mph 7 mph 89% 0.02 in 56 W/m2
13:55 43.3 °F 40.1 °F 30.5 in NNW 0.9 mph 7 mph 88% 0.02 in 63 W/m2
14:05 43.3 °F 40.3 °F 30.5 in West 6 mph 10 mph 89% 0.02 in 77 W/m2
14:10 43.3 °F 40.3 °F 30.5 in West 2 mph 10 mph 89% 0.02 in 91 W/m2
14:15 43.3 °F 40.3 °F 30.5 in North 0.9 mph 4 mph 89% 0.02 in 121 W/m2
14:20 43.3 °F 40.3 °F 30.5 in North 4 mph 10 mph 89% 0.01 in 158 W/m2
14:25 43.3 °F 40.3 °F 30.5 in West 2 mph 10 mph 89% 0.01 in 160 W/m2
14:30 43.3 °F 40.1 °F 30.5 in West 0.9 mph 3 mph 88% 0.01 in 167 W/m2
14:35 43.5 °F 40.3 °F 30.5 in NNW 6 mph 10 mph 88% 0.01 in 144 W/m2
14:40 43.7 °F 40.5 °F 30.5 in SE 0.9 mph 6 mph 88% 0.01 in 141 W/m2
14:45 43.9 °F 40.3 °F 30.5 in NW 6 mph 10 mph 87% 0 in 125 W/m2
14:50 43.9 °F 39.9 °F 30.5 in East 2 mph 4 mph 86% 0 in 109 W/m2
14:55 44.1 °F 40.1 °F 30.5 in NE 2 mph 8 mph 86% 0 in 91 W/m2
15:00 44.2 °F 40.3 °F 30.5 in NE 2 mph 5 mph 86% 0 in 104 W/m2
15:05 44.2 °F 40.3 °F 30.5 in Calm   5 mph 86% 0 in 146 W/m2
15:10 44.2 °F 40.1 °F 30.5 in ENE 2.9 mph 4 mph 85% 0 in 179 W/m2
15:15 44.4 °F 40.3 °F 30.5 in NNW 0.9 mph 3 mph 85% 0 in 160 W/m2
15:20 44.6 °F 40.6 °F 30.5 in NW 0.9 mph 5 mph 86% 0 in 118 W/m2
15:25 44.8 °F 40.5 °F 30.5 in ESE 2 mph 4 mph 85% 0 in 105 W/m2
15:30 44.8 °F 40.5 °F 30.5 in WSW 0.9 mph 2 mph 85% 0 in 102 W/m2
15:35 45 °F 40.6 °F 30.5 in ENE 2.9 mph 4 mph 85% 0 in 111 W/m2
15:45 44.8 °F 40.3 °F 30.5 in ENE 0.9 mph 5 mph 84% 0 in 111 W/m2
15:50 44.8 °F 40.5 °F 30.5 in East 0.9 mph 6 mph 85% 0 in 107 W/m2
15:55 44.8 °F 40.3 °F 30.5 in ENE 0.9 mph 4 mph 84% 0 in 100 W/m2
16:00 44.8 °F 40.5 °F 30.5 in ENE 2 mph 4 mph 85% 0 in 86 W/m2
16:05 44.8 °F 40.5 °F 30.5 in NNW 2 mph 3 mph 85% 0 in 70 W/m2
16:10 44.8 °F 40.5 °F 30.5 in NW 2 mph 3 mph 85% 0 in 62 W/m2
16:15 44.8 °F 40.5 °F 30.5 in NW 2 mph 5 mph 85% 0 in 63 W/m2
16:20 44.8 °F 40.5 °F 30.5 in NE 0.9 mph 3 mph 85% 0 in 74 W/m2
16:25 44.8 °F 40.5 °F 30.5 in SSW 0.9 mph 5 mph 85% 0 in 69 W/m2
16:30 45 °F 40.6 °F 30.5 in East 0.9 mph 3 mph 85% 0 in 77 W/m2
16:35 45 °F 40.6 °F 30.5 in NE 2.9 mph 3 mph 85% 0 in 88 W/m2
16:40 45 °F 40.6 °F 30.5 in ENE 0.9 mph 1 mph 85% 0 in 86 W/m2
16:45 45 °F 40.6 °F 30.5 in NW 0.9 mph 3 mph 85% 0 in 69 W/m2
16:50 45 °F 40.6 °F 30.5 in East 0.9 mph 2 mph 85% 0 in 56 W/m2
16:55 45 °F 40.6 °F 30.5 in East 0.9 mph 2 mph 85% 0 in 46 W/m2
17:00 45 °F 40.5 °F 30.5 in Calm   1 mph 84% 0 in 47 W/m2
17:05 45 °F 40.6 °F 30.5 in ENE 0.9 mph 1 mph 85% 0 in 47 W/m2
17:15 45.1 °F 40.6 °F 30.5 in Calm   2 mph 84% 0 in 46 W/m2
17:20 45.1 °F 40.6 °F 30.5 in Calm     84% 0 in 42 W/m2
17:25 45.1 °F 40.8 °F 30.5 in Calm   1 mph 85% 0 in 39 W/m2
17:30 45.1 °F 40.8 °F 30.5 in Calm     85% 0 in 33 W/m2
17:35 45 °F 40.6 °F 30.5 in Calm   2 mph 85% 0 in 30 W/m2
17:40 45 °F 40.6 °F 30.5 in NE 0.9 mph 1 mph 85% 0 in 26 W/m2
17:45 44.8 °F 40.5 °F 30.5 in Calm     85% 0 in 19 W/m2
17:50 44.6 °F 40.5 °F 30.5 in Calm     85% 0 in 14 W/m2
17:55 44.4 °F 40.3 °F 30.5 in Calm   1 mph 85% 0 in 12 W/m2
18:00 44.2 °F 40.1 °F 30.5 in Calm     85% 0 in 12 W/m2
18:05 43.9 °F 39.9 °F 30.5 in Calm   1 mph 86% 0 in 5 W/m2
18:10 43.7 °F 40.1 °F 30.5 in Calm     87% 0 in 0 W/m2
18:15 43.5 °F 39.9 °F 30.5 in Calm     87% 0 in 0 W/m2
18:20 43.3 °F 39.7 °F 30.5 in Calm     87% 0 in 0 W/m2
18:25 43.3 °F 40.1 °F 30.5 in Calm     88% 0 in 0 W/m2
18:30 43.2 °F 39.9 °F 30.5 in Calm     88% 0 in 0 W/m2
18:35 43.2 °F 40.1 °F 30.5 in Calm     89% 0 in 0 W/m2
18:40 43.2 °F 40.1 °F 30.5 in Calm     89% 0 in 0 W/m2
18:50 43.2 °F 40.1 °F 30.5 in Calm     89% 0 in 0 W/m2
18:55 43.2 °F 40.1 °F 30.5 in Calm     89% 0 in 0 W/m2
19:01 43 °F 39.9 °F 30.5 in Calm     89% 0 in 0 W/m2
19:06 42.8 °F 39.7 °F 30.5 in Calm     89% 0 in 0 W/m2
19:11 42.6 °F 39.6 °F 30.5 in Calm     89% 0 in 0 W/m2
19:16 42.4 °F 39.7 °F 30.5 in Calm     90% 0 in 0 W/m2
19:21 42.4 °F 39.7 °F 30.5 in Calm     90% 0 in 0 W/m2
19:26 42.4 °F 39.7 °F 30.5 in Calm     90% 0 in 0 W/m2
19:31 42.4 °F 39.7 °F 30.5 in NE 0.9 mph 2 mph 90% 0 in 0 W/m2
19:36 42.4 °F 39.9 °F 30.5 in Calm     91% 0 in 0 W/m2
19:41 42.4 °F 39.9 °F 30.5 in Calm     91% 0 in 0 W/m2
19:46 42.4 °F 39.9 °F 30.5 in Calm     91% 0 in 0 W/m2
19:51 42.6 °F 40.1 °F 30.5 in NE 0.9 mph 1 mph 91% 0 in 0 W/m2
19:56 42.6 °F 40.1 °F 30.5 in Calm   1 mph 91% 0 in 0 W/m2
20:01 42.6 °F 40.1 °F 30.5 in West 2 mph 2 mph 91% 0 in 0 W/m2
20:06 42.6 °F 40.1 °F 30.5 in West 2 mph 2 mph 91% 0 in 0 W/m2
20:11 42.6 °F 39.9 °F 30.5 in West 0.9 mph 3 mph 90% 0 in 0 W/m2
20:16 42.6 °F 39.9 °F 30.5 in Calm   3 mph 90% 0 in 0 W/m2
20:21 42.8 °F 39.7 °F 30.5 in Calm   1 mph 89% 0 in 0 W/m2
20:26 42.6 °F 39.6 °F 30.5 in West 2 mph 3 mph 89% 0 in 0 W/m2
20:31 42.6 °F 39.4 °F 30.5 in Calm   2 mph 88% 0 in 0 W/m2
20:36 42.4 °F 39.2 °F 30.5 in WSW 0.9 mph 3 mph 88% 0 in 0 W/m2
20:41 42.3 °F 38.7 °F 30.5 in West 2 mph 2 mph 87% 0 in 0 W/m2
20:46 42.1 °F 38.5 °F 30.5 in Calm   4 mph 87% 0 in 0 W/m2
20:51 42.1 °F 38.1 °F 30.6 in Calm   1 mph 86% 0 in 0 W/m2
20:56 41.9 °F 37.9 °F 30.6 in WSW 0.9 mph 4 mph 86% 0 in 0 W/m2
21:01 41.7 °F 37.6 °F 30.6 in Calm   2 mph 85% 0 in 0 W/m2
21:06 41.5 °F 37 °F 30.6 in Calm   1 mph 84% 0 in 0 W/m2
21:11 41.4 °F 36.9 °F 30.6 in Calm   2 mph 84% 0 in 0 W/m2
21:16 41.2 °F 36.7 °F 30.6 in SSE 0.9 mph 2 mph 84% 0 in 0 W/m2
21:21 40.8 °F 36.3 °F 30.6 in Calm     84% 0 in 0 W/m2
21:26 40.6 °F 36.1 °F 30.6 in SSE 0.9 mph 1 mph 84% 0 in 0 W/m2
21:31 40.3 °F 35.8 °F 30.6 in Calm   1 mph 84% 0 in 0 W/m2
21:36 39.9 °F 35.8 °F 30.6 in Calm     85% 0 in 0 W/m2
21:41 39.7 °F 35.6 °F 30.6 in Calm     85% 0 in 0 W/m2
21:46 39.6 °F 35.4 °F 30.6 in Calm     85% 0 in 0 W/m2
21:51 39.4 °F 35.6 °F 30.6 in Calm     86% 0 in 0 W/m2
21:56 39.2 °F 35.6 °F 30.6 in Calm     87% 0 in 0 W/m2
22:01 39 °F 35.8 °F 30.6 in Calm     88% 0 in 0 W/m2
22:06 39 °F 35.8 °F 30.6 in Calm     88% 0 in 0 W/m2
22:11 39 °F 35.8 °F 30.6 in Calm     88% 0 in 0 W/m2
22:16 38.8 °F 35.6 °F 30.6 in Calm     88% 0 in 0 W/m2
22:21 38.8 °F 35.6 °F 30.6 in Calm   1 mph 88% 0 in 0 W/m2
22:26 38.7 °F 35.8 °F 30.6 in Calm     89% 0 in 0 W/m2
22:31 38.8 °F 36 °F 30.6 in Calm     89% 0 in 0 W/m2
22:36 38.8 °F 36.1 °F 30.6 in Calm   1 mph 90% 0 in 0 W/m2
22:41 38.8 °F 36.1 °F 30.6 in Calm     90% 0 in 0 W/m2
22:46 38.8 °F 36.1 °F 30.6 in SSE 0.9 mph 2 mph 90% 0 in 0 W/m2
22:51 38.7 °F 35.8 °F 30.6 in Calm   1 mph 89% 0 in 0 W/m2
22:56 38.7 °F 35.8 °F 30.6 in Calm   2 mph 89% 0 in 0 W/m2
23:01 38.5 °F 35.6 °F 30.6 in Calm     89% 0 in 0 W/m2
23:06 38.5 °F 35.6 °F 30.6 in Calm     89% 0 in 0 W/m2
23:11 38.3 °F 35.4 °F 30.6 in Calm   1 mph 89% 0 in 0 W/m2
23:17 38.1 °F 35.2 °F 30.6 in Calm     89% 0 in 0 W/m2
23:27 37.9 °F 35.1 °F 30.6 in Calm     89% 0 in 0 W/m2
23:32 37.9 °F 34.7 °F 30.6 in Calm   1 mph 88% 0 in 0 W/m2
23:37 37.8 °F 34.9 °F 30.6 in SSE 0.9 mph 2 mph 89% 0 in 0 W/m2
23:42 37.8 °F 34.5 °F 30.6 in Calm   2 mph 88% 0 in 0 W/m2
23:47 37.6 °F 34.3 °F 30.6 in Calm   1 mph 88% 0 in 0 W/m2
23:52 37.6 °F 34.3 °F 30.6 in Calm   2 mph 88% 0 in 0 W/m2
23:57 37.8 °F 34.5 °F 30.6 in Calm     88% 0 in 0 W/m2
Juneau County Weather
Compliments of Weather Underground - 2 mb